createdAt,value
2018-11-07T00:01:27.549Z,97.10
2018-11-07T00:03:56.039Z,97.10
2018-11-07T00:06:24.552Z,97.10
2018-11-07T00:08:53.014Z,97.00
2018-11-07T00:11:21.471Z,97.00
2018-11-07T00:13:49.933Z,96.90
2018-11-07T00:16:18.412Z,96.90
2018-11-07T00:18:46.862Z,96.90
2018-11-07T00:21:15.354Z,96.90
2018-11-07T00:23:43.801Z,96.80
2018-11-07T00:26:12.301Z,96.90
2018-11-07T00:28:40.767Z,96.80
2018-11-07T00:31:09.273Z,96.90
2018-11-07T00:33:37.765Z,96.90
2018-11-07T00:36:06.402Z,96.90
2018-11-07T00:38:34.877Z,97.00
2018-11-07T00:41:03.375Z,97.00
2018-11-07T00:43:31.859Z,97.10
2018-11-07T00:46:00.360Z,97.00
2018-11-07T00:48:28.827Z,97.00
2018-11-07T00:50:57.278Z,96.90
2018-11-07T00:53:25.750Z,96.90
2018-11-07T00:55:54.245Z,96.90
2018-11-07T00:58:22.781Z,96.90
2018-11-07T01:00:51.280Z,96.90
2018-11-07T01:03:19.748Z,96.90
2018-11-07T01:05:48.241Z,96.90
2018-11-07T01:08:16.741Z,96.90
2018-11-07T01:10:45.225Z,96.80
2018-11-07T01:13:13.688Z,96.80
2018-11-07T01:15:42.142Z,96.80
2018-11-07T01:18:10.589Z,96.80
2018-11-07T01:20:39.128Z,96.70
2018-11-07T01:23:07.617Z,96.70
2018-11-07T01:25:36.128Z,96.70
2018-11-07T01:28:04.640Z,96.80
2018-11-07T01:30:33.161Z,96.80
2018-11-07T01:33:01.606Z,96.90
2018-11-07T01:35:30.056Z,96.90
2018-11-07T01:37:58.541Z,96.90
2018-11-07T01:40:27.016Z,96.90
2018-11-07T01:42:55.493Z,96.80
2018-11-07T01:45:23.971Z,96.80
2018-11-07T01:47:52.560Z,96.80
2018-11-07T01:50:21.595Z,96.80
2018-11-07T01:52:50.134Z,96.80
2018-11-07T01:55:18.637Z,96.80
2018-11-07T01:57:47.252Z,96.90
2018-11-07T02:00:15.955Z,96.90
2018-11-07T02:02:44.649Z,97.00
2018-11-07T02:05:13.982Z,97.10
2018-11-07T02:07:43.239Z,97.00
2018-11-07T02:10:11.978Z,97.00
2018-11-07T02:12:41.202Z,97.00
2018-11-07T02:15:10.438Z,97.00
2018-11-07T02:17:38.933Z,97.00
2018-11-07T02:20:08.683Z,96.90
2018-11-07T02:22:37.148Z,97.00
2018-11-07T02:25:07.276Z,97.00
2018-11-07T02:27:35.750Z,97.00
2018-11-07T02:30:04.840Z,97.00
2018-11-07T02:32:33.315Z,97.00
2018-11-07T02:35:01.784Z,96.90
2018-11-07T02:37:30.272Z,97.00
2018-11-07T02:39:58.749Z,96.90
2018-11-07T02:42:27.269Z,96.90
2018-11-07T02:44:55.766Z,96.90
2018-11-07T02:47:24.897Z,96.80
2018-11-07T02:49:54.223Z,96.80
2018-11-07T02:52:23.677Z,96.90
2018-11-07T02:54:52.152Z,96.90
2018-11-07T02:57:20.672Z,96.90
2018-11-07T02:59:49.379Z,96.90
2018-11-07T03:02:17.878Z,96.90
2018-11-07T03:04:46.429Z,96.90
2018-11-07T03:07:14.895Z,96.90
2018-11-07T03:09:43.402Z,96.90
2018-11-07T03:12:11.876Z,96.90
2018-11-07T03:14:40.356Z,96.90
2018-11-07T03:17:08.812Z,96.90
2018-11-07T03:19:37.314Z,96.90
2018-11-07T03:22:06.160Z,96.90
2018-11-07T03:24:34.664Z,96.90
2018-11-07T03:27:03.175Z,96.80
2018-11-07T03:29:31.652Z,96.80
2018-11-07T03:32:00.122Z,96.80
2018-11-07T03:34:28.597Z,96.80
2018-11-07T03:36:57.081Z,96.80
2018-11-07T03:39:26.369Z,96.80
2018-11-07T03:41:54.862Z,96.80
2018-11-07T03:44:23.329Z,96.70
2018-11-07T03:46:51.820Z,96.80
2018-11-07T03:49:20.329Z,96.80
2018-11-07T03:51:48.798Z,96.90
2018-11-07T03:54:17.287Z,96.90
2018-11-07T03:56:45.795Z,96.90
2018-11-07T03:59:14.227Z,96.90
2018-11-07T04:01:42.685Z,96.90
2018-11-07T04:04:11.167Z,96.80
2018-11-07T04:06:39.645Z,96.80
2018-11-07T04:09:10.293Z,96.80
2018-11-07T04:11:38.780Z,96.80
2018-11-07T04:14:07.461Z,96.80
2018-11-07T04:16:35.921Z,96.70
2018-11-07T04:19:04.825Z,97.00
2018-11-07T04:21:33.314Z,96.60
2018-11-07T04:24:04.053Z,96.70
2018-11-07T04:26:33.859Z,96.40
2018-11-07T04:29:02.462Z,96.60
2018-11-07T04:31:31.152Z,96.60
2018-11-07T04:33:59.766Z,96.60
2018-11-07T04:36:28.221Z,96.60
2018-11-07T04:38:56.816Z,96.60
2018-11-07T04:41:25.457Z,96.70
2018-11-07T04:43:54.523Z,96.70
2018-11-07T04:46:23.001Z,96.80
2018-11-07T04:48:51.569Z,96.80
2018-11-07T04:51:20.047Z,96.90
2018-11-07T04:53:48.522Z,96.90
2018-11-07T04:56:17.021Z,96.90
2018-11-07T04:58:45.497Z,96.90
2018-11-07T05:01:14.078Z,96.80
2018-11-07T05:03:42.557Z,96.80
2018-11-07T05:06:11.066Z,96.80
2018-11-07T05:08:39.551Z,96.80
2018-11-07T05:11:08.016Z,96.70
2018-11-07T05:13:36.975Z,96.80
2018-11-07T05:16:05.734Z,96.80
2018-11-07T05:18:34.218Z,97.00
2018-11-07T05:21:02.703Z,97.10
2018-11-07T05:23:31.205Z,97.20
2018-11-07T05:25:59.888Z,97.30
2018-11-07T05:28:29.454Z,97.60
2018-11-07T05:30:57.940Z,97.40
2018-11-07T05:33:26.456Z,97.50
2018-11-07T05:35:54.971Z,97.50
2018-11-07T05:38:23.544Z,97.60
2018-11-07T05:40:52.187Z,97.60
2018-11-07T05:43:20.704Z,97.50
2018-11-07T05:45:49.239Z,97.50
2018-11-07T05:48:17.727Z,97.60
2018-11-07T05:50:46.279Z,97.70
2018-11-07T05:53:14.741Z,97.70
2018-11-07T05:55:43.201Z,97.70
2018-11-07T05:58:11.708Z,97.80
2018-11-07T06:00:40.283Z,97.80
2018-11-07T06:03:08.795Z,97.80
2018-11-07T06:05:37.426Z,97.80
2018-11-07T06:08:05.924Z,97.90
2018-11-07T06:10:34.433Z,98.00
2018-11-07T06:13:03.098Z,98.20
2018-11-07T06:15:31.649Z,98.50
2018-11-07T06:18:00.149Z,98.50
2018-11-07T06:20:28.897Z,98.60
2018-11-07T06:22:57.841Z,98.60
2018-11-07T06:25:26.463Z,98.60
2018-11-07T06:27:55.246Z,98.60
2018-11-07T06:30:23.780Z,98.70
2018-11-07T06:32:52.265Z,98.80
2018-11-07T06:35:20.779Z,98.80
2018-11-07T06:37:49.326Z,98.70
2018-11-07T06:40:17.876Z,98.70
2018-11-07T06:42:46.382Z,98.70
2018-11-07T06:45:14.912Z,98.70
2018-11-07T06:47:43.477Z,98.60
2018-11-07T06:50:14.245Z,98.60
2018-11-07T06:52:43.125Z,98.70
2018-11-07T06:55:12.425Z,98.70
2018-11-07T06:57:40.971Z,98.80
2018-11-07T07:00:12.013Z,98.70
2018-11-07T07:02:40.590Z,98.70
2018-11-07T07:05:09.164Z,98.60
2018-11-07T07:07:38.141Z,98.60
2018-11-07T07:10:10.271Z,98.60
2018-11-07T07:12:38.800Z,98.50
2018-11-07T07:15:09.262Z,98.40
2018-11-07T07:17:37.887Z,98.30
2018-11-07T07:20:09.301Z,98.30
2018-11-07T07:22:38.201Z,98.40
2018-11-07T07:25:08.149Z,98.40
2018-11-07T07:27:36.993Z,98.40
2018-11-07T07:30:07.829Z,98.30
2018-11-07T07:32:36.496Z,98.30
2018-11-07T07:35:05.579Z,98.30
2018-11-07T07:37:34.402Z,98.20
2018-11-07T07:40:03.660Z,98.20
2018-11-07T07:42:32.241Z,98.10
2018-11-07T07:45:00.941Z,98.10
2018-11-07T07:47:29.401Z,98.10
2018-11-07T07:49:57.882Z,98.10
2018-11-07T07:52:26.422Z,98.20
2018-11-07T07:54:54.819Z,98.20
2018-11-07T07:57:23.286Z,98.20
2018-11-07T07:59:51.730Z,98.30
2018-11-07T08:02:20.186Z,98.30
2018-11-07T08:04:48.702Z,98.70
2018-11-07T08:07:17.206Z,98.40
2018-11-07T08:09:45.833Z,98.40
2018-11-07T08:12:14.568Z,98.40
2018-11-07T08:14:43.337Z,98.30
2018-11-07T08:17:11.800Z,98.30
2018-11-07T08:19:40.358Z,98.30
2018-11-07T08:22:09.914Z,98.30
2018-11-07T08:24:38.605Z,98.00
2018-11-07T08:27:07.073Z,98.20
2018-11-07T08:29:38.266Z,98.10
2018-11-07T08:32:06.890Z,98.10
2018-11-07T08:34:35.584Z,98.00
2018-11-07T08:37:04.283Z,98.00
2018-11-07T08:39:32.982Z,97.90
2018-11-07T08:42:01.794Z,97.80
2018-11-07T08:44:30.516Z,97.70
2018-11-07T08:46:59.177Z,97.70
2018-11-07T08:49:27.842Z,97.60
2018-11-07T08:51:56.623Z,97.40
2018-11-07T08:54:26.024Z,97.40
2018-11-07T08:56:54.768Z,97.20
2018-11-07T08:59:23.679Z,97.10
2018-11-07T09:01:52.654Z,96.90
2018-11-07T09:04:21.570Z,96.60
2018-11-07T09:06:50.244Z,96.40
2018-11-07T09:09:19.967Z,96.00
2018-11-07T09:11:48.782Z,95.80
2018-11-07T09:14:17.481Z,95.80
2018-11-07T09:16:46.243Z,95.40
2018-11-07T09:19:14.777Z,95.20
2018-11-07T09:21:43.256Z,95.00
2018-11-07T09:24:11.854Z,94.80
2018-11-07T09:26:40.361Z,94.70
2018-11-07T09:29:09.059Z,94.80
2018-11-07T09:31:37.676Z,94.70
2018-11-07T09:34:06.410Z,94.50
2018-11-07T09:36:35.205Z,94.10
2018-11-07T09:39:04.585Z,94.10
2018-11-07T09:41:33.257Z,94.10
2018-11-07T09:44:01.965Z,93.90
2018-11-07T09:46:30.596Z,93.60
2018-11-07T09:48:59.314Z,93.50
2018-11-07T09:51:28.125Z,93.30
2018-11-07T09:54:00.309Z,92.50
2018-11-07T09:56:28.849Z,92.20
2018-11-07T09:58:57.464Z,92.30
2018-11-07T10:01:26.188Z,92.00
2018-11-07T10:03:54.945Z,91.80
2018-11-07T10:06:23.942Z,91.80
2018-11-07T10:08:52.713Z,91.30
2018-11-07T10:11:21.406Z,91.30
2018-11-07T10:13:50.130Z,90.90
2018-11-07T10:16:18.901Z,90.80
2018-11-07T10:18:47.736Z,90.40
2018-11-07T10:21:16.599Z,90.40
2018-11-07T10:23:45.256Z,89.70
2018-11-07T10:26:13.869Z,90.00
2018-11-07T10:28:42.867Z,89.00
2018-11-07T10:31:11.350Z,88.20
2018-11-07T10:33:40.217Z,87.80
2018-11-07T10:36:08.899Z,87.10
2018-11-07T10:38:37.706Z,86.90
2018-11-07T10:41:06.291Z,86.50
2018-11-07T10:43:35.046Z,86.50
2018-11-07T10:46:04.224Z,85.60
2018-11-07T10:48:32.849Z,84.20
2018-11-07T10:51:01.545Z,83.30
2018-11-07T10:53:30.212Z,82.80
2018-11-07T10:55:58.756Z,83.60
2018-11-07T10:58:27.427Z,81.00
2018-11-07T11:01:01.374Z,80.30
2018-11-07T11:03:31.139Z,79.10
2018-11-07T11:05:59.659Z,79.50
2018-11-07T11:08:28.167Z,80.30
2018-11-07T11:10:56.666Z,79.20
2018-11-07T11:13:25.488Z,80.40
2018-11-07T11:15:53.938Z,78.90
2018-11-07T11:18:22.403Z,78.60
2018-11-07T11:20:50.856Z,79.50
2018-11-07T11:23:19.410Z,78.90
2018-11-07T11:25:47.921Z,78.90
2018-11-07T11:28:16.422Z,78.40
2018-11-07T11:30:44.869Z,78.50
2018-11-07T11:33:13.339Z,77.90
2018-11-07T11:35:41.812Z,77.40
2018-11-07T11:38:10.274Z,76.80
2018-11-07T11:40:38.776Z,76.90
2018-11-07T11:43:07.204Z,76.90
2018-11-07T11:45:35.670Z,76.50
2018-11-07T11:48:04.214Z,75.60
2018-11-07T11:50:32.780Z,76.10
2018-11-07T11:53:01.247Z,75.60
2018-11-07T11:55:29.681Z,75.50
2018-11-07T11:57:58.453Z,74.90
2018-11-07T12:00:27.178Z,74.70
2018-11-07T12:02:55.830Z,73.40
2018-11-07T12:05:24.294Z,73.60
2018-11-07T12:07:53.648Z,72.80
2018-11-07T12:10:24.335Z,72.90
2018-11-07T12:12:55.277Z,72.50
2018-11-07T12:15:25.121Z,71.90
2018-11-07T12:17:53.973Z,71.70
2018-11-07T12:20:22.500Z,72.40
2018-11-07T12:22:51.188Z,71.40
2018-11-07T12:25:20.466Z,69.20
2018-11-07T12:30:30.070Z,69.80
2018-11-07T12:33:12.523Z,68.20
2018-11-07T12:35:43.366Z,66.50
2018-11-07T12:38:11.920Z,67.20
2018-11-07T12:40:40.473Z,65.70
2018-11-07T12:43:09.357Z,66.00
2018-11-07T12:45:37.950Z,65.20
2018-11-07T12:48:06.539Z,64.20
2018-11-07T12:50:36.358Z,63.50
2018-11-07T12:53:05.055Z,63.90
2018-11-07T12:55:33.630Z,64.00
2018-11-07T12:58:02.363Z,65.70
2018-11-07T13:00:30.865Z,66.10
2018-11-07T13:02:59.499Z,66.10
2018-11-07T13:05:27.947Z,66.80
2018-11-07T13:07:57.662Z,65.70
2018-11-07T13:10:26.189Z,66.70
2018-11-07T13:12:55.082Z,67.40
2018-11-07T13:15:23.561Z,66.60
2018-11-07T13:17:52.611Z,67.10
2018-11-07T13:20:25.877Z,67.30
2018-11-07T13:22:55.102Z,67.50
2018-11-07T13:25:25.273Z,66.20
2018-11-07T13:27:54.011Z,66.50
2018-11-07T13:30:23.978Z,67.00
2018-11-07T13:32:52.544Z,66.80
2018-11-07T13:35:21.377Z,66.20
2018-11-07T13:37:50.875Z,65.00
2018-11-07T13:40:20.773Z,64.70
2018-11-07T13:42:49.324Z,65.80
2018-11-07T13:45:19.302Z,64.40
2018-11-07T13:47:48.994Z,64.70
2018-11-07T13:50:18.232Z,65.30
2018-11-07T13:52:46.732Z,65.40
2018-11-07T13:55:15.933Z,66.10
2018-11-07T13:57:46.129Z,66.90
2018-11-07T14:00:16.929Z,66.50
2018-11-07T14:02:46.190Z,67.20
2018-11-07T14:05:15.354Z,68.00
2018-11-07T14:07:43.799Z,68.10
2018-11-07T14:10:18.472Z,68.30
2018-11-07T14:12:47.091Z,68.80
2018-11-07T14:15:15.809Z,69.10
2018-11-07T14:17:44.588Z,69.50
2018-11-07T14:20:13.068Z,69.80
2018-11-07T14:22:41.884Z,70.00
2018-11-07T14:25:11.113Z,70.40
2018-11-07T14:27:39.811Z,71.00
2018-11-07T14:30:13.212Z,71.50
2018-11-07T14:32:52.702Z,71.50
2018-11-07T14:35:21.686Z,71.50
2018-11-07T14:37:50.656Z,71.90
2018-11-07T14:40:19.167Z,71.10
2018-11-07T14:42:47.869Z,71.40
2018-11-07T14:45:16.365Z,71.00
2018-11-07T14:47:44.929Z,71.10
2018-11-07T14:50:13.829Z,71.20
2018-11-07T14:52:42.559Z,71.60
2018-11-07T14:55:11.946Z,72.00
2018-11-07T14:57:40.538Z,71.60
2018-11-07T15:00:10.469Z,71.30
2018-11-07T15:02:39.572Z,70.80
2018-11-07T15:05:09.521Z,70.50
2018-11-07T15:07:38.004Z,70.50
2018-11-07T15:10:07.800Z,70.30
2018-11-07T15:12:36.602Z,70.10
2018-11-07T15:15:06.941Z,70.40
2018-11-07T15:17:36.322Z,69.40
2018-11-07T15:20:05.424Z,69.50
2018-11-07T15:22:33.901Z,69.60
2018-11-07T15:25:02.406Z,69.90
2018-11-07T15:27:31.044Z,69.70
2018-11-07T15:29:59.733Z,70.10
2018-11-07T15:32:28.247Z,70.10
2018-11-07T15:34:56.769Z,70.40
2018-11-07T15:37:25.282Z,70.60
2018-11-07T15:39:53.834Z,70.80
2018-11-07T15:42:22.338Z,71.20
2018-11-07T15:44:51.321Z,71.40
2018-11-07T15:47:20.047Z,72.00
2018-11-07T15:49:53.812Z,72.40
2018-11-07T15:52:22.437Z,72.50
2018-11-07T15:54:51.313Z,72.80
2018-11-07T15:57:25.084Z,72.90
2018-11-07T15:59:53.662Z,73.30
2018-11-07T16:02:22.460Z,72.70
2018-11-07T16:04:51.034Z,72.90
2018-11-07T16:07:20.025Z,72.80
2018-11-07T16:09:49.227Z,73.20
2018-11-07T16:12:18.237Z,73.30
2018-11-07T16:14:46.993Z,72.80
2018-11-07T16:17:15.538Z,72.90
2018-11-07T16:19:44.041Z,72.80
2018-11-07T16:22:13.356Z,73.00
2018-11-07T16:24:41.901Z,73.00
2018-11-07T16:27:10.433Z,73.20
2018-11-07T16:29:45.168Z,73.50
2018-11-07T16:32:14.327Z,73.90
2018-11-07T16:34:42.935Z,74.20
2018-11-07T16:37:11.469Z,74.70
2018-11-07T16:39:40.707Z,75.10
2018-11-07T16:42:09.263Z,75.40
2018-11-07T16:44:39.954Z,75.80
2018-11-07T16:47:08.574Z,76.30
2018-11-07T16:49:37.621Z,76.80
2018-11-07T16:52:07.093Z,77.00
2018-11-07T16:54:35.660Z,77.30
2018-11-07T16:57:04.186Z,77.50
2018-11-07T16:59:32.670Z,77.80
2018-11-07T17:02:01.868Z,78.00
2018-11-07T17:04:30.355Z,78.20
2018-11-07T17:06:58.881Z,78.40
2018-11-07T17:09:27.453Z,78.90
2018-11-07T17:11:57.533Z,78.50
2018-11-07T17:14:26.060Z,78.70
2018-11-07T17:16:54.687Z,79.20
2018-11-07T17:19:23.211Z,78.90
2018-11-07T17:21:51.708Z,78.80
2018-11-07T17:24:20.328Z,79.10
2018-11-07T17:26:48.835Z,79.30
2018-11-07T17:29:17.390Z,79.40
2018-11-07T17:31:45.931Z,79.70
2018-11-07T17:34:14.411Z,80.00
2018-11-07T17:36:42.944Z,80.30
2018-11-07T17:39:11.445Z,80.20
2018-11-07T17:41:39.901Z,80.40
2018-11-07T17:44:08.389Z,80.50
2018-11-07T17:46:36.965Z,81.00
2018-11-07T17:49:05.618Z,81.50
2018-11-07T17:51:34.199Z,80.90
2018-11-07T17:54:02.722Z,80.70
2018-11-07T17:56:31.265Z,81.00
2018-11-07T17:59:00.033Z,81.10
2018-11-07T18:01:28.565Z,81.20
2018-11-07T18:03:57.160Z,81.90
2018-11-07T18:06:25.639Z,82.60
2018-11-07T18:08:54.148Z,82.60
2018-11-07T18:11:23.859Z,82.90
2018-11-07T18:13:52.418Z,83.00
2018-11-07T18:16:20.989Z,83.10
2018-11-07T18:18:49.492Z,83.50
2018-11-07T18:21:18.057Z,83.60
2018-11-07T18:23:46.564Z,83.70
2018-11-07T18:26:15.135Z,83.90
2018-11-07T18:28:43.677Z,84.00
2018-11-07T18:31:12.544Z,84.20
2018-11-07T18:33:41.607Z,84.30
2018-11-07T18:36:10.555Z,84.60
2018-11-07T18:38:39.572Z,85.00
2018-11-07T18:41:08.463Z,85.40
2018-11-07T18:43:37.317Z,85.70
2018-11-07T18:46:06.344Z,86.00
2018-11-07T18:48:35.143Z,86.20
2018-11-07T18:51:04.369Z,86.50
2018-11-07T18:53:33.334Z,86.70
2018-11-07T18:56:01.871Z,87.00
2018-11-07T18:58:30.500Z,87.50
2018-11-07T19:01:00.151Z,87.80
2018-11-07T19:03:29.053Z,88.00
2018-11-07T19:06:02.862Z,88.20
2018-11-07T19:08:31.460Z,88.40
2018-11-07T19:11:00.350Z,89.00
2018-11-07T19:13:29.239Z,89.20
2018-11-07T19:15:58.195Z,89.20
2018-11-07T19:18:26.730Z,89.40
2018-11-07T19:20:55.265Z,89.60
2018-11-07T19:23:23.784Z,89.90
2018-11-07T19:25:52.311Z,90.00
2018-11-07T19:28:20.862Z,90.10
2018-11-07T19:30:49.401Z,90.10
2018-11-07T19:33:18.321Z,90.20
2018-11-07T19:35:47.178Z,90.20
2018-11-07T19:38:15.896Z,90.20
2018-11-07T19:40:44.446Z,90.30
2018-11-07T19:43:12.975Z,90.30
2018-11-07T19:45:41.481Z,90.30
2018-11-07T19:48:09.985Z,90.30
2018-11-07T19:50:38.549Z,90.30
2018-11-07T19:53:07.054Z,90.40
2018-11-07T19:55:35.535Z,90.50
2018-11-07T19:58:04.141Z,90.50
2018-11-07T20:00:32.629Z,90.50
2018-11-07T20:03:01.121Z,90.60
2018-11-07T20:05:29.669Z,90.60
2018-11-07T20:07:58.181Z,90.60
2018-11-07T20:10:26.898Z,90.70
2018-11-07T20:12:55.246Z,90.70
2018-11-07T20:15:23.766Z,90.60
2018-11-07T20:17:52.416Z,90.70
2018-11-07T20:20:20.899Z,90.70
2018-11-07T20:22:49.462Z,90.70
2018-11-07T20:25:18.603Z,90.80
2018-11-07T20:27:47.114Z,90.80
2018-11-07T20:30:17.080Z,90.80
2018-11-07T20:32:45.640Z,90.80
2018-11-07T20:35:15.610Z,90.80
2018-11-07T20:37:45.066Z,90.80
2018-11-07T20:40:14.918Z,90.90
2018-11-07T20:42:45.911Z,90.90
2018-11-07T20:45:15.431Z,90.80
2018-11-07T20:47:44.150Z,90.90
2018-11-07T20:50:18.294Z,90.90
2018-11-07T20:52:47.377Z,91.00
2018-11-07T20:55:16.292Z,91.00
2018-11-07T20:57:45.402Z,91.00
2018-11-07T21:00:18.399Z,91.00
2018-11-07T21:02:47.236Z,91.30
2018-11-07T21:05:15.891Z,90.90
2018-11-07T21:07:45.425Z,90.90
2018-11-07T21:11:38.658Z,90.80
2018-11-07T21:14:07.459Z,90.80
2018-11-07T21:16:36.972Z,90.70
2018-11-07T21:19:05.715Z,90.70
2018-11-07T21:21:34.305Z,90.80
2018-11-07T21:24:02.906Z,90.80
2018-11-07T21:26:31.621Z,90.80
2018-11-07T21:29:00.268Z,90.90
2018-11-07T21:31:28.764Z,90.80
2018-11-07T21:33:57.298Z,90.80
2018-11-07T21:36:25.849Z,90.80
2018-11-07T21:38:54.445Z,90.80
2018-11-07T21:41:22.977Z,90.70
2018-11-07T21:43:51.677Z,90.50
2018-11-07T21:46:20.189Z,90.70
2018-11-07T21:48:48.667Z,90.80
2018-11-07T21:51:17.154Z,90.80
2018-11-07T21:53:45.697Z,90.80
2018-11-07T21:56:14.241Z,90.90
2018-11-07T21:58:42.766Z,90.90
2018-11-07T22:01:11.249Z,90.90
2018-11-07T22:03:39.867Z,90.90
2018-11-07T22:06:08.407Z,90.90
2018-11-07T22:08:36.906Z,91.00
2018-11-07T22:11:05.423Z,91.00
2018-11-07T22:13:33.947Z,91.00
2018-11-07T22:16:02.474Z,91.00
2018-11-07T22:18:31.977Z,91.10
2018-11-07T22:21:00.473Z,91.20
2018-11-07T22:23:29.117Z,91.20
2018-11-07T22:25:57.613Z,91.20
2018-11-07T22:28:26.357Z,91.30
2018-11-07T22:30:54.817Z,91.30
2018-11-07T22:33:23.306Z,91.30
2018-11-07T22:35:51.809Z,91.40
2018-11-07T22:38:20.293Z,91.40
2018-11-07T22:40:48.795Z,91.40
2018-11-07T22:43:17.280Z,91.40
2018-11-07T22:45:45.773Z,91.40
2018-11-07T22:48:14.256Z,91.50
2018-11-07T22:50:42.758Z,91.50
2018-11-07T22:53:11.238Z,91.60
2018-11-07T22:55:39.726Z,91.60
2018-11-07T22:58:08.258Z,91.60
2018-11-07T23:00:42.546Z,91.70
2018-11-07T23:03:11.026Z,91.70
2018-11-07T23:05:39.513Z,91.80
2018-11-07T23:08:08.034Z,91.80
2018-11-07T23:10:36.539Z,91.80
2018-11-07T23:13:05.110Z,91.80
2018-11-07T23:15:39.981Z,91.90
2018-11-07T23:18:08.471Z,91.90
2018-11-07T23:20:36.964Z,91.90
2018-11-07T23:23:05.798Z,91.90
2018-11-07T23:25:34.282Z,92.00
2018-11-07T23:28:03.474Z,92.00
2018-11-07T23:30:32.030Z,92.00
2018-11-07T23:33:00.571Z,92.00
2018-11-07T23:35:29.130Z,92.10
2018-11-07T23:37:57.622Z,92.10
2018-11-07T23:40:26.169Z,92.10
2018-11-07T23:42:54.737Z,92.20
2018-11-07T23:45:23.220Z,92.20
2018-11-07T23:47:52.594Z,92.20
2018-11-07T23:50:21.076Z,92.30
2018-11-07T23:52:50.837Z,92.20
2018-11-07T23:55:20.718Z,92.20
2018-11-07T23:57:49.892Z,92.20
